Nearby METAR Reports

 

KAVP - Avoca/Wilkes B., Pennsylvania, USA
Distance from station: N 16mi, 25km
Updated: 03/23/2019 6:54pm
Clear
Clear
 Wind from NNW
Wind: NNW 16 mph , 26 km/h
Temperature: 41°F , 5°C
Wind Chill: 33°F , 1°C
Dew Point: 10°F , -12°C
Humidity: 28%
Barometer: 30.09 inHg , 1019 hPa
Clouds: Clear
Visibility: 10 miles , 16 km
2019/03/23 22:54 KAVP 232254Z 33014KT 10SM CLR 05/M12 A3009 RMK AO2 SLP196 T00501117
KMPO - Mt. Pocono, Pennsylvania, USA
Distance from station: E 20mi, 33km
Updated: 03/23/2019 6:53pm
Clear
Clear
 Wind from WNW
Wind: WNW 9 mph , 15 km/h, Gust: 22 mph , 35 km/h
Temperature: 36°F , 2°C
Wind Chill: 29°F , -2°C
Dew Point: 10°F , -12°C
Humidity: 35%
Barometer: 30.03 inHg , 1016.9 hPa
Clouds: Clear
Visibility: 10 miles , 16 km
2019/03/23 22:53 KMPO 232253Z AUTO 29008G19KT 10SM CLR 02/M12 A3003 RMK AO2 PK WND 28030/2213 SLP190 T00171117
 
KABE - Allentown, Pennsylvania, USA
Distance from station: SSE 36mi, 58km
Updated: 03/23/2019 6:51pm
Clear
Clear
 Wind from WNW
Wind: WNW 13 mph , 20 km/h, Gust: 24 mph , 39 km/h
Temperature: 48°F , 9°C
Wind Chill: 43°F , 6°C
Dew Point: 7°F , -14°C
Humidity: 18%
Barometer: 30.08 inHg , 1018.6 hPa
Clouds: Clear
Visibility: 10 miles , 16 km
2019/03/23 22:51 KABE 232251Z 30011G21KT 10SM CLR 09/M14 A3008 RMK AO2 SLP188 T00941144
KXLL - Allentown Queen, Pennsylvania, USA
Distance from station: SSE 41mi, 65km
Updated: 03/23/2019 6:55pm
Clear
Clear
 Wind from NW
Wind: NW 13 mph , 20 km/h, Gust: 18 mph , 30 km/h
Temperature: 48°F , 9°C
Wind Chill: 43°F , 6°C
Dew Point: 7°F , -14°C
Humidity: 18%
Barometer: 30.09 inHg , 1019 hPa
Clouds: Clear
Visibility: 10 miles , 16 km
2019/03/23 22:55 KXLL 232255Z AUTO 31011G16KT 10SM CLR 09/M14 A3009 RMK AO2